sensor_id;sensor_type;location;lat;lon;timestamp;P1;durP1;ratioP1;P2;durP2;ratioP2
15258;SDS011;34462;51.368;12.364;2023-03-02T00:01:50;12.00;;;8.00;;
15258;SDS011;34462;51.368;12.364;2023-03-02T00:04:24;11.30;;;7.67;;
15258;SDS011;34462;51.368;12.364;2023-03-02T00:07:00;10.70;;;7.40;;
15258;SDS011;34462;51.368;12.364;2023-03-02T00:09:34;10.73;;;7.93;;
15258;SDS011;34462;51.368;12.364;2023-03-02T00:12:04;9.47;;;7.70;;
15258;SDS011;34462;51.368;12.364;2023-03-02T00:14:34;10.63;;;8.07;;
15258;SDS011;34462;51.368;12.364;2023-03-02T00:17:03;11.87;;;8.20;;
15258;SDS011;34462;51.368;12.364;2023-03-02T00:19:33;12.13;;;8.00;;
15258;SDS011;34462;51.368;12.364;2023-03-02T00:22:01;11.53;;;8.17;;
15258;SDS011;34462;51.368;12.364;2023-03-02T00:24:30;13.30;;;8.07;;
15258;SDS011;34462;51.368;12.364;2023-03-02T00:27:00;12.20;;;8.57;;
15258;SDS011;34462;51.368;12.364;2023-03-02T00:29:28;11.67;;;8.20;;
15258;SDS011;34462;51.368;12.364;2023-03-02T00:31:56;10.60;;;8.10;;
15258;SDS011;34462;51.368;12.364;2023-03-02T00:34:25;14.23;;;8.40;;
15258;SDS011;34462;51.368;12.364;2023-03-02T00:36:53;12.87;;;8.37;;
15258;SDS011;34462;51.368;12.364;2023-03-02T00:39:22;12.60;;;8.43;;
15258;SDS011;34462;51.368;12.364;2023-03-02T00:41:50;12.30;;;8.70;;
15258;SDS011;34462;51.368;12.364;2023-03-02T00:44:19;12.33;;;9.27;;
15258;SDS011;34462;51.368;12.364;2023-03-02T00:46:48;10.83;;;8.13;;
15258;SDS011;34462;51.368;12.364;2023-03-02T00:49:16;12.80;;;8.67;;
15258;SDS011;34462;51.368;12.364;2023-03-02T00:51:44;12.23;;;8.77;;
15258;SDS011;34462;51.368;12.364;2023-03-02T00:54:12;12.27;;;8.30;;
15258;SDS011;34462;51.368;12.364;2023-03-02T00:56:40;12.53;;;8.50;;
15258;SDS011;34462;51.368;12.364;2023-03-02T00:59:10;12.37;;;8.83;;
15258;SDS011;34462;51.368;12.364;2023-03-02T01:01:52;13.47;;;8.90;;
15258;SDS011;34462;51.368;12.364;2023-03-02T01:04:23;12.43;;;8.47;;
15258;SDS011;34462;51.368;12.364;2023-03-02T01:06:54;12.47;;;7.90;;
15258;SDS011;34462;51.368;12.364;2023-03-02T01:09:23;12.97;;;8.70;;
15258;SDS011;34462;51.368;12.364;2023-03-02T01:11:51;13.00;;;8.47;;
15258;SDS011;34462;51.368;12.364;2023-03-02T01:14:20;12.03;;;8.60;;
15258;SDS011;34462;51.368;12.364;2023-03-02T01:16:49;13.20;;;8.27;;
15258;SDS011;34462;51.368;12.364;2023-03-02T01:19:19;15.13;;;9.90;;
15258;SDS011;34462;51.368;12.364;2023-03-02T01:21:47;14.93;;;9.10;;
15258;SDS011;34462;51.368;12.364;2023-03-02T01:24:15;13.83;;;9.43;;
15258;SDS011;34462;51.368;12.364;2023-03-02T01:26:43;15.13;;;9.03;;
15258;SDS011;34462;51.368;12.364;2023-03-02T01:29:12;16.27;;;9.50;;
15258;SDS011;34462;51.368;12.364;2023-03-02T01:31:41;13.83;;;8.87;;
15258;SDS011;34462;51.368;12.364;2023-03-02T01:34:09;13.73;;;8.90;;
15258;SDS011;34462;51.368;12.364;2023-03-02T01:36:38;14.83;;;9.63;;
15258;SDS011;34462;51.368;12.364;2023-03-02T01:39:10;14.10;;;9.57;;
15258;SDS011;34462;51.368;12.364;2023-03-02T01:41:41;13.30;;;9.33;;
15258;SDS011;34462;51.368;12.364;2023-03-02T01:47:05;14.13;;;9.50;;
15258;SDS011;34462;51.368;12.364;2023-03-02T01:49:42;14.87;;;9.30;;
15258;SDS011;34462;51.368;12.364;2023-03-02T01:52:17;15.53;;;9.70;;
15258;SDS011;34462;51.368;12.364;2023-03-02T01:54:46;14.60;;;9.33;;
15258;SDS011;34462;51.368;12.364;2023-03-02T01:57:19;14.27;;;9.37;;
15258;SDS011;34462;51.368;12.364;2023-03-02T01:59:53;14.43;;;9.67;;
15258;SDS011;34462;51.368;12.364;2023-03-02T02:02:27;15.47;;;9.83;;
15258;SDS011;34462;51.368;12.364;2023-03-02T02:04:56;13.67;;;9.37;;
15258;SDS011;34462;51.368;12.364;2023-03-02T02:07:26;13.33;;;9.60;;
15258;SDS011;34462;51.368;12.364;2023-03-02T02:09:54;14.67;;;9.53;;
15258;SDS011;34462;51.368;12.364;2023-03-02T02:12:23;12.30;;;8.90;;
15258;SDS011;34462;51.368;12.364;2023-03-02T02:14:51;14.57;;;9.10;;
15258;SDS011;34462;51.368;12.364;2023-03-02T02:17:20;13.30;;;9.10;;
15258;SDS011;34462;51.368;12.364;2023-03-02T02:19:53;11.47;;;8.93;;
15258;SDS011;34462;51.368;12.364;2023-03-02T02:22:37;15.23;;;9.07;;
15258;SDS011;34462;51.368;12.364;2023-03-02T02:25:23;14.90;;;9.57;;
15258;SDS011;34462;51.368;12.364;2023-03-02T02:28:11;13.07;;;8.23;;
15258;SDS011;34462;51.368;12.364;2023-03-02T02:30:49;13.53;;;9.30;;
15258;SDS011;34462;51.368;12.364;2023-03-02T02:33:33;13.77;;;8.33;;
15258;SDS011;34462;51.368;12.364;2023-03-02T02:36:06;11.47;;;8.00;;
15258;SDS011;34462;51.368;12.364;2023-03-02T02:38:40;12.80;;;9.20;;
15258;SDS011;34462;51.368;12.364;2023-03-02T02:41:14;14.40;;;8.27;;
15258;SDS011;34462;51.368;12.364;2023-03-02T02:43:49;12.43;;;8.57;;
15258;SDS011;34462;51.368;12.364;2023-03-02T02:46:18;12.30;;;8.13;;
15258;SDS011;34462;51.368;12.364;2023-03-02T02:48:46;15.73;;;8.97;;
15258;SDS011;34462;51.368;12.364;2023-03-02T02:51:16;12.70;;;8.37;;
15258;SDS011;34462;51.368;12.364;2023-03-02T02:53:51;12.33;;;9.33;;
15258;SDS011;34462;51.368;12.364;2023-03-02T02:56:25;14.93;;;9.27;;
15258;SDS011;34462;51.368;12.364;2023-03-02T02:58:59;13.13;;;8.67;;
15258;SDS011;34462;51.368;12.364;2023-03-02T03:01:33;13.33;;;8.63;;
15258;SDS011;34462;51.368;12.364;2023-03-02T03:04:02;12.50;;;8.60;;
15258;SDS011;34462;51.368;12.364;2023-03-02T03:06:33;14.60;;;9.33;;
15258;SDS011;34462;51.368;12.364;2023-03-02T03:09:09;13.63;;;9.73;;
15258;SDS011;34462;51.368;12.364;2023-03-02T03:11:38;12.63;;;8.67;;
15258;SDS011;34462;51.368;12.364;2023-03-02T03:14:13;12.87;;;8.80;;
15258;SDS011;34462;51.368;12.364;2023-03-02T03:16:44;16.37;;;9.70;;
15258;SDS011;34462;51.368;12.364;2023-03-02T03:19:15;14.20;;;9.03;;
15258;SDS011;34462;51.368;12.364;2023-03-02T03:21:48;14.43;;;9.60;;
15258;SDS011;34462;51.368;12.364;2023-03-02T03:24:20;12.63;;;9.53;;
15258;SDS011;34462;51.368;12.364;2023-03-02T03:26:49;14.77;;;9.20;;
15258;SDS011;34462;51.368;12.364;2023-03-02T03:29:21;15.47;;;9.33;;
15258;SDS011;34462;51.368;12.364;2023-03-02T03:31:51;14.87;;;9.90;;
15258;SDS011;34462;51.368;12.364;2023-03-02T03:34:22;18.30;;;8.97;;
15258;SDS011;34462;51.368;12.364;2023-03-02T03:36:52;15.10;;;9.73;;
15258;SDS011;34462;51.368;12.364;2023-03-02T03:39:27;14.27;;;9.50;;
15258;SDS011;34462;51.368;12.364;2023-03-02T03:41:56;12.97;;;9.07;;
15258;SDS011;34462;51.368;12.364;2023-03-02T03:44:26;16.77;;;9.63;;
15258;SDS011;34462;51.368;12.364;2023-03-02T03:46:55;13.90;;;9.20;;
15258;SDS011;34462;51.368;12.364;2023-03-02T03:49:23;13.90;;;9.33;;
15258;SDS011;34462;51.368;12.364;2023-03-02T03:51:52;16.53;;;10.20;;
15258;SDS011;34462;51.368;12.364;2023-03-02T03:54:21;16.93;;;10.57;;
15258;SDS011;34462;51.368;12.364;2023-03-02T03:56:49;16.57;;;10.07;;
15258;SDS011;34462;51.368;12.364;2023-03-02T03:59:18;15.03;;;10.50;;
15258;SDS011;34462;51.368;12.364;2023-03-02T04:01:51;18.00;;;10.70;;
15258;SDS011;34462;51.368;12.364;2023-03-02T04:04:23;17.03;;;10.43;;
15258;SDS011;34462;51.368;12.364;2023-03-02T04:06:54;17.73;;;10.63;;
15258;SDS011;34462;51.368;12.364;2023-03-02T04:09:23;17.97;;;11.00;;
15258;SDS011;34462;51.368;12.364;2023-03-02T04:11:53;17.37;;;10.90;;
15258;SDS011;34462;51.368;12.364;2023-03-02T04:14:22;17.00;;;11.13;;
15258;SDS011;34462;51.368;12.364;2023-03-02T04:16:52;16.87;;;11.27;;
15258;SDS011;34462;51.368;12.364;2023-03-02T04:19:20;17.23;;;10.97;;
15258;SDS011;34462;51.368;12.364;2023-03-02T04:21:50;16.93;;;11.17;;
15258;SDS011;34462;51.368;12.364;2023-03-02T04:24:21;17.87;;;11.90;;
15258;SDS011;34462;51.368;12.364;2023-03-02T04:26:50;17.97;;;11.20;;
15258;SDS011;34462;51.368;12.364;2023-03-02T04:29:18;19.03;;;11.10;;
15258;SDS011;34462;51.368;12.364;2023-03-02T04:31:47;16.27;;;10.53;;
15258;SDS011;34462;51.368;12.364;2023-03-02T04:34:16;18.10;;;11.07;;
15258;SDS011;34462;51.368;12.364;2023-03-02T04:36:44;18.20;;;10.90;;
15258;SDS011;34462;51.368;12.364;2023-03-02T04:39:13;19.30;;;11.40;;
15258;SDS011;34462;51.368;12.364;2023-03-02T04:41:44;21.87;;;11.97;;
15258;SDS011;34462;51.368;12.364;2023-03-02T04:44:13;17.33;;;11.47;;
15258;SDS011;34462;51.368;12.364;2023-03-02T04:46:43;20.30;;;11.67;;
15258;SDS011;34462;51.368;12.364;2023-03-02T04:49:12;17.97;;;11.57;;
15258;SDS011;34462;51.368;12.364;2023-03-02T04:51:44;15.17;;;10.63;;
15258;SDS011;34462;51.368;12.364;2023-03-02T04:54:15;16.47;;;10.87;;
15258;SDS011;34462;51.368;12.364;2023-03-02T04:56:46;19.63;;;11.80;;
15258;SDS011;34462;51.368;12.364;2023-03-02T04:59:17;17.90;;;11.20;;
15258;SDS011;34462;51.368;12.364;2023-03-02T05:01:47;16.90;;;10.27;;
15258;SDS011;34462;51.368;12.364;2023-03-02T05:04:16;18.40;;;11.60;;
15258;SDS011;34462;51.368;12.364;2023-03-02T05:06:46;15.67;;;10.50;;
15258;SDS011;34462;51.368;12.364;2023-03-02T05:09:14;17.50;;;10.87;;
15258;SDS011;34462;51.368;12.364;2023-03-02T05:11:43;17.60;;;11.33;;
15258;SDS011;34462;51.368;12.364;2023-03-02T05:14:11;17.47;;;10.53;;
15258;SDS011;34462;51.368;12.364;2023-03-02T05:16:40;14.90;;;10.30;;
15258;SDS011;34462;51.368;12.364;2023-03-02T05:19:09;15.77;;;10.43;;
15258;SDS011;34462;51.368;12.364;2023-03-02T05:21:38;19.43;;;11.17;;
15258;SDS011;34462;51.368;12.364;2023-03-02T05:24:08;14.97;;;10.10;;
15258;SDS011;34462;51.368;12.364;2023-03-02T05:26:40;17.30;;;10.17;;
15258;SDS011;34462;51.368;12.364;2023-03-02T05:29:08;15.93;;;10.13;;
15258;SDS011;34462;51.368;12.364;2023-03-02T05:31:37;14.87;;;9.30;;
15258;SDS011;34462;51.368;12.364;2023-03-02T05:34:08;14.83;;;9.37;;
15258;SDS011;34462;51.368;12.364;2023-03-02T05:36:39;15.60;;;9.80;;
15258;SDS011;34462;51.368;12.364;2023-03-02T05:39:08;16.50;;;9.50;;
15258;SDS011;34462;51.368;12.364;2023-03-02T05:41:37;13.13;;;9.20;;
15258;SDS011;34462;51.368;12.364;2023-03-02T05:44:07;13.60;;;9.43;;
15258;SDS011;34462;51.368;12.364;2023-03-02T05:46:37;13.70;;;8.93;;
15258;SDS011;34462;51.368;12.364;2023-03-02T05:49:06;14.50;;;9.30;;
15258;SDS011;34462;51.368;12.364;2023-03-02T05:51:35;13.10;;;8.93;;
15258;SDS011;34462;51.368;12.364;2023-03-02T05:54:03;14.37;;;9.60;;
15258;SDS011;34462;51.368;12.364;2023-03-02T05:56:33;14.80;;;9.20;;
15258;SDS011;34462;51.368;12.364;2023-03-02T05:59:01;15.40;;;8.97;;
15258;SDS011;34462;51.368;12.364;2023-03-02T06:01:29;14.67;;;9.33;;
15258;SDS011;34462;51.368;12.364;2023-03-02T06:03:58;16.07;;;9.63;;
15258;SDS011;34462;51.368;12.364;2023-03-02T06:06:26;20.23;;;10.07;;
15258;SDS011;34462;51.368;12.364;2023-03-02T06:08:55;12.80;;;9.07;;
15258;SDS011;34462;51.368;12.364;2023-03-02T06:11:23;13.87;;;8.77;;
15258;SDS011;34462;51.368;12.364;2023-03-02T06:13:53;14.43;;;9.13;;
15258;SDS011;34462;51.368;12.364;2023-03-02T06:16:21;13.03;;;8.67;;
15258;SDS011;34462;51.368;12.364;2023-03-02T06:18:49;12.03;;;7.93;;
15258;SDS011;34462;51.368;12.364;2023-03-02T06:21:17;13.93;;;8.40;;
15258;SDS011;34462;51.368;12.364;2023-03-02T06:23:45;16.10;;;9.07;;
15258;SDS011;34462;51.368;12.364;2023-03-02T06:26:13;12.70;;;8.30;;
15258;SDS011;34462;51.368;12.364;2023-03-02T06:28:42;15.83;;;9.10;;
15258;SDS011;34462;51.368;12.364;2023-03-02T06:31:20;12.80;;;8.97;;
15258;SDS011;34462;51.368;12.364;2023-03-02T06:33:49;14.33;;;8.80;;
15258;SDS011;34462;51.368;12.364;2023-03-02T06:36:17;14.80;;;9.97;;
15258;SDS011;34462;51.368;12.364;2023-03-02T06:38:45;13.67;;;8.53;;
15258;SDS011;34462;51.368;12.364;2023-03-02T06:41:13;14.70;;;9.13;;
15258;SDS011;34462;51.368;12.364;2023-03-02T06:43:43;13.23;;;8.63;;
15258;SDS011;34462;51.368;12.364;2023-03-02T06:46:11;12.83;;;8.27;;
15258;SDS011;34462;51.368;12.364;2023-03-02T06:48:41;13.67;;;8.30;;
15258;SDS011;34462;51.368;12.364;2023-03-02T06:51:09;13.27;;;8.73;;
15258;SDS011;34462;51.368;12.364;2023-03-02T06:53:38;12.70;;;8.67;;
15258;SDS011;34462;51.368;12.364;2023-03-02T06:56:06;15.83;;;8.90;;
15258;SDS011;34462;51.368;12.364;2023-03-02T06:58:34;13.13;;;8.30;;
15258;SDS011;34462;51.368;12.364;2023-03-02T07:01:03;14.17;;;8.40;;
15258;SDS011;34462;51.368;12.364;2023-03-02T07:03:34;13.13;;;7.97;;
15258;SDS011;34462;51.368;12.364;2023-03-02T07:06:04;12.87;;;8.33;;
15258;SDS011;34462;51.368;12.364;2023-03-02T07:08:33;13.67;;;8.30;;
15258;SDS011;34462;51.368;12.364;2023-03-02T07:11:03;14.73;;;8.33;;
15258;SDS011;34462;51.368;12.364;2023-03-02T07:13:32;12.13;;;8.33;;
15258;SDS011;34462;51.368;12.364;2023-03-02T07:16:04;13.40;;;8.47;;
15258;SDS011;34462;51.368;12.364;2023-03-02T07:18:34;13.83;;;9.27;;
15258;SDS011;34462;51.368;12.364;2023-03-02T07:21:04;15.93;;;9.97;;
15258;SDS011;34462;51.368;12.364;2023-03-02T07:23:32;14.30;;;8.57;;
15258;SDS011;34462;51.368;12.364;2023-03-02T07:26:01;14.17;;;8.80;;
15258;SDS011;34462;51.368;12.364;2023-03-02T07:28:33;10.67;;;7.90;;
15258;SDS011;34462;51.368;12.364;2023-03-02T07:31:04;12.33;;;7.93;;
15258;SDS011;34462;51.368;12.364;2023-03-02T07:33:33;11.87;;;8.07;;
15258;SDS011;34462;51.368;12.364;2023-03-02T07:36:01;11.80;;;7.77;;
15258;SDS011;34462;51.368;12.364;2023-03-02T07:38:32;15.13;;;8.47;;
15258;SDS011;34462;51.368;12.364;2023-03-02T07:41:04;13.20;;;8.47;;
15258;SDS011;34462;51.368;12.364;2023-03-02T07:43:34;14.10;;;8.80;;
15258;SDS011;34462;51.368;12.364;2023-03-02T07:46:02;13.83;;;9.10;;
15258;SDS011;34462;51.368;12.364;2023-03-02T07:48:31;13.20;;;8.77;;
15258;SDS011;34462;51.368;12.364;2023-03-02T07:51:00;14.03;;;9.53;;
15258;SDS011;34462;51.368;12.364;2023-03-02T07:53:32;16.13;;;10.03;;
15258;SDS011;34462;51.368;12.364;2023-03-02T07:56:04;14.27;;;9.07;;
15258;SDS011;34462;51.368;12.364;2023-03-02T07:58:34;14.27;;;10.43;;
15258;SDS011;34462;51.368;12.364;2023-03-02T08:01:03;14.27;;;10.37;;
15258;SDS011;34462;51.368;12.364;2023-03-02T08:03:32;17.20;;;11.17;;
15258;SDS011;34462;51.368;12.364;2023-03-02T08:06:04;15.77;;;10.13;;
15258;SDS011;34462;51.368;12.364;2023-03-02T08:08:34;17.87;;;11.83;;
15258;SDS011;34462;51.368;12.364;2023-03-02T08:11:04;14.90;;;10.77;;
15258;SDS011;34462;51.368;12.364;2023-03-02T08:13:34;17.70;;;11.67;;
15258;SDS011;34462;51.368;12.364;2023-03-02T08:16:03;16.87;;;11.17;;
15258;SDS011;34462;51.368;12.364;2023-03-02T08:18:34;17.73;;;11.40;;
15258;SDS011;34462;51.368;12.364;2023-03-02T08:21:07;16.90;;;10.80;;
15258;SDS011;34462;51.368;12.364;2023-03-02T08:23:38;17.57;;;10.90;;
15258;SDS011;34462;51.368;12.364;2023-03-02T08:26:07;16.70;;;11.27;;
15258;SDS011;34462;51.368;12.364;2023-03-02T08:28:39;14.93;;;10.23;;
15258;SDS011;34462;51.368;12.364;2023-03-02T08:31:07;16.77;;;10.57;;
15258;SDS011;34462;51.368;12.364;2023-03-02T08:33:36;15.47;;;10.33;;
15258;SDS011;34462;51.368;12.364;2023-03-02T08:36:07;16.60;;;10.47;;
15258;SDS011;34462;51.368;12.364;2023-03-02T08:38:39;17.07;;;11.50;;
15258;SDS011;34462;51.368;12.364;2023-03-02T08:41:10;17.80;;;11.70;;
15258;SDS011;34462;51.368;12.364;2023-03-02T08:43:40;19.37;;;11.27;;
15258;SDS011;34462;51.368;12.364;2023-03-02T08:46:09;17.97;;;12.50;;
15258;SDS011;34462;51.368;12.364;2023-03-02T08:48:39;17.87;;;11.17;;
15258;SDS011;34462;51.368;12.364;2023-03-02T08:51:11;16.20;;;11.17;;
15258;SDS011;34462;51.368;12.364;2023-03-02T08:53:42;17.10;;;11.13;;
15258;SDS011;34462;51.368;12.364;2023-03-02T08:56:14;17.30;;;11.80;;
15258;SDS011;34462;51.368;12.364;2023-03-02T08:58:47;14.77;;;10.87;;
15258;SDS011;34462;51.368;12.364;2023-03-02T09:01:18;19.37;;;11.77;;
15258;SDS011;34462;51.368;12.364;2023-03-02T09:03:49;20.03;;;12.13;;
15258;SDS011;34462;51.368;12.364;2023-03-02T09:06:20;19.40;;;12.67;;
15258;SDS011;34462;51.368;12.364;2023-03-02T09:08:48;19.60;;;12.73;;
15258;SDS011;34462;51.368;12.364;2023-03-02T09:11:16;16.37;;;11.23;;
15258;SDS011;34462;51.368;12.364;2023-03-02T09:13:45;18.90;;;12.13;;
15258;SDS011;34462;51.368;12.364;2023-03-02T09:16:14;19.93;;;12.87;;
15258;SDS011;34462;51.368;12.364;2023-03-02T09:18:45;22.40;;;13.50;;
15258;SDS011;34462;51.368;12.364;2023-03-02T09:21:13;21.17;;;13.23;;
15258;SDS011;34462;51.368;12.364;2023-03-02T09:23:43;19.60;;;13.73;;
15258;SDS011;34462;51.368;12.364;2023-03-02T09:26:11;18.37;;;13.37;;
15258;SDS011;34462;51.368;12.364;2023-03-02T09:28:40;19.90;;;13.77;;
15258;SDS011;34462;51.368;12.364;2023-03-02T09:31:08;22.03;;;14.33;;
15258;SDS011;34462;51.368;12.364;2023-03-02T09:33:38;19.37;;;12.67;;
15258;SDS011;34462;51.368;12.364;2023-03-02T09:36:07;19.50;;;12.60;;
15258;SDS011;34462;51.368;12.364;2023-03-02T09:38:38;16.67;;;12.60;;
15258;SDS011;34462;51.368;12.364;2023-03-02T09:41:11;18.90;;;13.47;;
15258;SDS011;34462;51.368;12.364;2023-03-02T09:44:01;19.17;;;12.70;;
15258;SDS011;34462;51.368;12.364;2023-03-02T09:46:52;18.37;;;12.73;;
15258;SDS011;34462;51.368;12.364;2023-03-02T09:49:28;19.57;;;12.77;;
15258;SDS011;34462;51.368;12.364;2023-03-02T09:52:14;19.77;;;12.40;;
15258;SDS011;34462;51.368;12.364;2023-03-02T09:54:56;20.77;;;13.43;;
15258;SDS011;34462;51.368;12.364;2023-03-02T09:57:36;20.57;;;13.13;;
15258;SDS011;34462;51.368;12.364;2023-03-02T10:00:06;20.10;;;13.20;;
15258;SDS011;34462;51.368;12.364;2023-03-02T10:02:46;18.50;;;12.50;;
15258;SDS011;34462;51.368;12.364;2023-03-02T10:05:17;21.23;;;13.20;;
15258;SDS011;34462;51.368;12.364;2023-03-02T10:07:49;20.47;;;13.10;;
15258;SDS011;34462;51.368;12.364;2023-03-02T10:10:24;18.03;;;12.23;;
15258;SDS011;34462;51.368;12.364;2023-03-02T10:13:07;19.57;;;13.10;;
15258;SDS011;34462;51.368;12.364;2023-03-02T10:15:51;18.30;;;13.07;;
15258;SDS011;34462;51.368;12.364;2023-03-02T10:18:41;19.57;;;12.70;;
15258;SDS011;34462;51.368;12.364;2023-03-02T10:21:17;18.10;;;13.10;;
15258;SDS011;34462;51.368;12.364;2023-03-02T10:23:55;18.33;;;12.83;;
15258;SDS011;34462;51.368;12.364;2023-03-02T10:26:35;18.93;;;13.17;;
15258;SDS011;34462;51.368;12.364;2023-03-02T10:29:26;18.17;;;12.73;;
15258;SDS011;34462;51.368;12.364;2023-03-02T10:32:19;18.43;;;12.30;;
15258;SDS011;34462;51.368;12.364;2023-03-02T10:34:50;22.97;;;13.20;;
15258;SDS011;34462;51.368;12.364;2023-03-02T10:37:20;17.37;;;12.07;;
15258;SDS011;34462;51.368;12.364;2023-03-02T10:39:51;19.00;;;12.40;;
15258;SDS011;34462;51.368;12.364;2023-03-02T10:42:19;16.53;;;12.37;;
15258;SDS011;34462;51.368;12.364;2023-03-02T10:44:57;18.90;;;13.13;;
15258;SDS011;34462;51.368;12.364;2023-03-02T10:47:35;21.50;;;13.03;;
15258;SDS011;34462;51.368;12.364;2023-03-02T10:50:03;19.77;;;13.37;;
15258;SDS011;34462;51.368;12.364;2023-03-02T10:52:48;17.87;;;12.23;;
15258;SDS011;34462;51.368;12.364;2023-03-02T10:55:26;20.73;;;13.20;;
15258;SDS011;34462;51.368;12.364;2023-03-02T10:58:01;17.67;;;12.17;;
15258;SDS011;34462;51.368;12.364;2023-03-02T11:00:33;18.10;;;12.23;;
15258;SDS011;34462;51.368;12.364;2023-03-02T11:03:02;16.60;;;11.93;;
15258;SDS011;34462;51.368;12.364;2023-03-02T11:05:46;18.50;;;12.40;;
15258;SDS011;34462;51.368;12.364;2023-03-02T11:08:16;18.80;;;12.90;;
15258;SDS011;34462;51.368;12.364;2023-03-02T11:10:50;18.27;;;12.00;;
15258;SDS011;34462;51.368;12.364;2023-03-02T11:13:26;16.43;;;11.60;;
15258;SDS011;34462;51.368;12.364;2023-03-02T11:15:58;17.83;;;12.43;;
15258;SDS011;34462;51.368;12.364;2023-03-02T11:18:30;17.97;;;12.20;;
15258;SDS011;34462;51.368;12.364;2023-03-02T11:21:04;17.13;;;11.80;;
15258;SDS011;34462;51.368;12.364;2023-03-02T11:23:43;17.30;;;11.97;;
15258;SDS011;34462;51.368;12.364;2023-03-02T11:26:24;18.13;;;12.63;;
15258;SDS011;34462;51.368;12.364;2023-03-02T11:29:02;16.63;;;12.30;;
15258;SDS011;34462;51.368;12.364;2023-03-02T11:31:41;14.93;;;11.33;;
15258;SDS011;34462;51.368;12.364;2023-03-02T11:37:05;15.17;;;10.93;;
15258;SDS011;34462;51.368;12.364;2023-03-02T11:39:49;15.83;;;10.83;;
15258;SDS011;34462;51.368;12.364;2023-03-02T11:42:32;15.40;;;10.73;;
15258;SDS011;34462;51.368;12.364;2023-03-02T11:45:13;13.27;;;9.20;;
15258;SDS011;34462;51.368;12.364;2023-03-02T11:47:48;15.73;;;10.33;;
15258;SDS011;34462;51.368;12.364;2023-03-02T11:50:28;13.50;;;10.23;;
15258;SDS011;34462;51.368;12.364;2023-03-02T11:53:03;14.83;;;10.60;;
15258;SDS011;34462;51.368;12.364;2023-03-02T11:55:42;15.27;;;10.07;;
15258;SDS011;34462;51.368;12.364;2023-03-02T11:58:15;17.13;;;10.50;;
15258;SDS011;34462;51.368;12.364;2023-03-02T12:00:47;15.20;;;10.10;;
15258;SDS011;34462;51.368;12.364;2023-03-02T12:03:20;14.97;;;9.90;;
15258;SDS011;34462;51.368;12.364;2023-03-02T12:06:05;14.33;;;9.63;;
15258;SDS011;34462;51.368;12.364;2023-03-02T12:08:52;12.73;;;9.90;;
15258;SDS011;34462;51.368;12.364;2023-03-02T12:11:35;13.53;;;9.77;;
15258;SDS011;34462;51.368;12.364;2023-03-02T12:17:03;10.73;;;7.90;;
15258;SDS011;34462;51.368;12.364;2023-03-02T12:19:48;12.13;;;8.93;;
15258;SDS011;34462;51.368;12.364;2023-03-02T12:22:27;12.83;;;9.17;;
15258;SDS011;34462;51.368;12.364;2023-03-02T12:24:58;11.20;;;8.57;;
15258;SDS011;34462;51.368;12.364;2023-03-02T12:27:35;14.67;;;9.13;;
15258;SDS011;34462;51.368;12.364;2023-03-02T12:30:09;12.83;;;9.00;;
15258;SDS011;34462;51.368;12.364;2023-03-02T12:32:59;10.97;;;8.27;;
15258;SDS011;34462;51.368;12.364;2023-03-02T12:35:46;10.27;;;8.57;;
15258;SDS011;34462;51.368;12.364;2023-03-02T12:38:25;13.00;;;9.13;;
15258;SDS011;34462;51.368;12.364;2023-03-02T12:41:03;11.93;;;8.17;;
15258;SDS011;34462;51.368;12.364;2023-03-02T12:43:51;12.43;;;7.90;;
15258;SDS011;34462;51.368;12.364;2023-03-02T12:46:42;10.77;;;8.23;;
15258;SDS011;34462;51.368;12.364;2023-03-02T12:49:15;9.77;;;7.37;;
15258;SDS011;34462;51.368;12.364;2023-03-02T12:51:56;9.60;;;7.27;;
15258;SDS011;34462;51.368;12.364;2023-03-02T12:54:28;9.77;;;7.43;;
15258;SDS011;34462;51.368;12.364;2023-03-02T12:57:02;11.30;;;8.57;;
15258;SDS011;34462;51.368;12.364;2023-03-02T12:59:34;14.07;;;9.30;;
15258;SDS011;34462;51.368;12.364;2023-03-02T13:02:04;11.47;;;8.37;;
15258;SDS011;34462;51.368;12.364;2023-03-02T13:04:40;10.83;;;7.93;;
15258;SDS011;34462;51.368;12.364;2023-03-02T13:07:17;9.70;;;8.23;;
15258;SDS011;34462;51.368;12.364;2023-03-02T13:09:51;11.97;;;7.80;;
15258;SDS011;34462;51.368;12.364;2023-03-02T13:12:23;12.13;;;8.77;;
15258;SDS011;34462;51.368;12.364;2023-03-02T13:14:54;9.90;;;7.83;;
15258;SDS011;34462;51.368;12.364;2023-03-02T13:17:26;10.93;;;8.50;;
15258;SDS011;34462;51.368;12.364;2023-03-02T13:19:56;10.90;;;7.57;;
15258;SDS011;34462;51.368;12.364;2023-03-02T13:22:28;9.47;;;7.07;;
15258;SDS011;34462;51.368;12.364;2023-03-02T13:24:57;10.13;;;7.27;;
15258;SDS011;34462;51.368;12.364;2023-03-02T13:27:29;10.07;;;7.03;;
15258;SDS011;34462;51.368;12.364;2023-03-02T13:30:07;10.93;;;8.50;;
15258;SDS011;34462;51.368;12.364;2023-03-02T13:32:38;11.07;;;8.17;;
15258;SDS011;34462;51.368;12.364;2023-03-02T13:35:14;11.67;;;8.70;;
15258;SDS011;34462;51.368;12.364;2023-03-02T13:37:57;12.47;;;8.83;;
15258;SDS011;34462;51.368;12.364;2023-03-02T13:40:37;13.20;;;9.43;;
15258;SDS011;34462;51.368;12.364;2023-03-02T13:43:18;13.00;;;9.87;;
15258;SDS011;34462;51.368;12.364;2023-03-02T13:45:50;13.47;;;9.37;;
15258;SDS011;34462;51.368;12.364;2023-03-02T13:48:21;12.93;;;9.57;;
15258;SDS011;34462;51.368;12.364;2023-03-02T13:50:50;11.33;;;9.00;;
15258;SDS011;34462;51.368;12.364;2023-03-02T13:53:24;11.20;;;9.00;;
15258;SDS011;34462;51.368;12.364;2023-03-02T13:55:55;11.47;;;8.90;;
15258;SDS011;34462;51.368;12.364;2023-03-02T13:58:26;12.83;;;9.00;;
15258;SDS011;34462;51.368;12.364;2023-03-02T14:00:57;9.43;;;8.00;;
15258;SDS011;34462;51.368;12.364;2023-03-02T14:03:27;11.57;;;8.60;;
15258;SDS011;34462;51.368;12.364;2023-03-02T14:05:57;12.20;;;8.60;;
15258;SDS011;34462;51.368;12.364;2023-03-02T14:08:27;10.43;;;8.40;;
15258;SDS011;34462;51.368;12.364;2023-03-02T14:10:55;10.77;;;8.73;;
15258;SDS011;34462;51.368;12.364;2023-03-02T14:13:27;12.17;;;9.03;;
15258;SDS011;34462;51.368;12.364;2023-03-02T14:16:04;11.33;;;9.00;;
15258;SDS011;34462;51.368;12.364;2023-03-02T14:18:35;12.37;;;9.20;;
15258;SDS011;34462;51.368;12.364;2023-03-02T14:21:08;12.47;;;9.30;;
15258;SDS011;34462;51.368;12.364;2023-03-02T14:23:41;12.43;;;9.40;;
15258;SDS011;34462;51.368;12.364;2023-03-02T14:26:21;11.27;;;9.10;;
15258;SDS011;34462;51.368;12.364;2023-03-02T14:28:58;12.47;;;9.13;;
15258;SDS011;34462;51.368;12.364;2023-03-02T14:31:31;10.90;;;8.90;;
15258;SDS011;34462;51.368;12.364;2023-03-02T14:34:00;11.23;;;8.77;;
15258;SDS011;34462;51.368;12.364;2023-03-02T14:36:28;11.43;;;8.53;;
15258;SDS011;34462;51.368;12.364;2023-03-02T14:39:02;10.20;;;8.83;;
15258;SDS011;34462;51.368;12.364;2023-03-02T14:41:39;11.60;;;8.87;;
15258;SDS011;34462;51.368;12.364;2023-03-02T14:44:19;11.00;;;7.90;;
15258;SDS011;34462;51.368;12.364;2023-03-02T14:46:48;10.77;;;8.40;;
15258;SDS011;34462;51.368;12.364;2023-03-02T14:49:16;10.43;;;8.53;;
15258;SDS011;34462;51.368;12.364;2023-03-02T14:51:46;12.90;;;8.50;;
15258;SDS011;34462;51.368;12.364;2023-03-02T14:54:25;10.80;;;7.77;;